sensor_id;sensor_type;location;lat;lon;timestamp;temperature;humidity
16578;DHT22;8401;52.528;13.340;2023-04-07T00:02:16;6.70;99.90
16578;DHT22;8401;52.528;13.340;2023-04-07T00:04:41;6.70;99.90
16578;DHT22;8401;52.528;13.340;2023-04-07T00:07:07;6.70;99.90
16578;DHT22;8401;52.528;13.340;2023-04-07T00:09:33;6.70;99.90
16578;DHT22;8401;52.528;13.340;2023-04-07T00:11:59;6.70;99.90
16578;DHT22;8401;52.528;13.340;2023-04-07T00:14:27;6.70;99.90
16578;DHT22;8401;52.528;13.340;2023-04-07T00:16:53;6.60;99.90
16578;DHT22;8401;52.528;13.340;2023-04-07T00:19:18;6.60;99.90
16578;DHT22;8401;52.528;13.340;2023-04-07T00:21:44;6.60;99.90
16578;DHT22;8401;52.528;13.340;2023-04-07T00:24:10;6.60;99.90
16578;DHT22;8401;52.528;13.340;2023-04-07T00:26:36;6.50;99.90
16578;DHT22;8401;52.528;13.340;2023-04-07T00:29:01;6.50;99.90
16578;DHT22;8401;52.528;13.340;2023-04-07T00:31:27;6.50;99.90
16578;DHT22;8401;52.528;13.340;2023-04-07T00:33:53;6.40;99.90
16578;DHT22;8401;52.528;13.340;2023-04-07T00:36:20;6.40;99.90
16578;DHT22;8401;52.528;13.340;2023-04-07T00:38:45;6.40;99.90
16578;DHT22;8401;52.528;13.340;2023-04-07T00:41:11;6.40;99.90
16578;DHT22;8401;52.528;13.340;2023-04-07T00:43:37;6.40;99.90
16578;DHT22;8401;52.528;13.340;2023-04-07T00:46:02;6.40;99.90
16578;DHT22;8401;52.528;13.340;2023-04-07T00:48:28;6.40;99.90
16578;DHT22;8401;52.528;13.340;2023-04-07T00:50:55;6.50;99.90
16578;DHT22;8401;52.528;13.340;2023-04-07T00:53:21;6.40;99.90
16578;DHT22;8401;52.528;13.340;2023-04-07T00:55:46;6.50;99.90
16578;DHT22;8401;52.528;13.340;2023-04-07T00:58:12;6.50;99.90
16578;DHT22;8401;52.528;13.340;2023-04-07T01:00:44;6.50;99.90
16578;DHT22;8401;52.528;13.340;2023-04-07T01:03:19;6.70;99.90
16578;DHT22;8401;52.528;13.340;2023-04-07T01:06:00;6.30;99.90
16578;DHT22;8401;52.528;13.340;2023-04-07T01:08:29;6.20;99.90
16578;DHT22;8401;52.528;13.340;2023-04-07T01:13:36;6.10;99.90
16578;DHT22;8401;52.528;13.340;2023-04-07T01:16:04;6.20;99.90
16578;DHT22;8401;52.528;13.340;2023-04-07T01:18:35;6.10;99.90
16578;DHT22;8401;52.528;13.340;2023-04-07T01:21:04;6.10;99.90
16578;DHT22;8401;52.528;13.340;2023-04-07T01:26:32;6.00;99.90
16578;DHT22;8401;52.528;13.340;2023-04-07T01:31:49;6.00;99.90
16578;DHT22;8401;52.528;13.340;2023-04-07T01:34:16;6.00;99.90
16578;DHT22;8401;52.528;13.340;2023-04-07T01:36:43;6.00;99.90
16578;DHT22;8401;52.528;13.340;2023-04-07T01:39:10;5.90;99.90
16578;DHT22;8401;52.528;13.340;2023-04-07T01:41:37;5.90;99.90
16578;DHT22;8401;52.528;13.340;2023-04-07T01:44:05;6.00;99.90
16578;DHT22;8401;52.528;13.340;2023-04-07T01:46:33;5.90;99.90
16578;DHT22;8401;52.528;13.340;2023-04-07T01:48:59;5.90;99.90
16578;DHT22;8401;52.528;13.340;2023-04-07T01:51:27;5.90;99.90
16578;DHT22;8401;52.528;13.340;2023-04-07T01:53:55;5.80;99.90
16578;DHT22;8401;52.528;13.340;2023-04-07T01:56:22;5.80;99.90
16578;DHT22;8401;52.528;13.340;2023-04-07T01:58:47;5.90;99.90
16578;DHT22;8401;52.528;13.340;2023-04-07T02:01:13;5.90;99.90
16578;DHT22;8401;52.528;13.340;2023-04-07T02:03:49;5.80;99.90
16578;DHT22;8401;52.528;13.340;2023-04-07T02:06:19;5.70;99.90
16578;DHT22;8401;52.528;13.340;2023-04-07T02:08:50;5.70;99.90
16578;DHT22;8401;52.528;13.340;2023-04-07T02:11:19;5.70;99.90
16578;DHT22;8401;52.528;13.340;2023-04-07T02:13:46;5.70;99.90
16578;DHT22;8401;52.528;13.340;2023-04-07T02:16:12;5.70;99.90
16578;DHT22;8401;52.528;13.340;2023-04-07T02:18:39;5.80;99.90
16578;DHT22;8401;52.528;13.340;2023-04-07T02:21:06;5.70;99.90
16578;DHT22;8401;52.528;13.340;2023-04-07T02:23:36;5.70;99.90
16578;DHT22;8401;52.528;13.340;2023-04-07T02:26:01;5.60;99.90
16578;DHT22;8401;52.528;13.340;2023-04-07T02:28:27;5.60;99.90
16578;DHT22;8401;52.528;13.340;2023-04-07T02:30:52;5.60;99.90
16578;DHT22;8401;52.528;13.340;2023-04-07T02:33:18;5.60;99.90
16578;DHT22;8401;52.528;13.340;2023-04-07T02:35:44;5.60;99.90
16578;DHT22;8401;52.528;13.340;2023-04-07T02:38:09;5.70;99.90
16578;DHT22;8401;52.528;13.340;2023-04-07T02:40:35;5.70;99.90
16578;DHT22;8401;52.528;13.340;2023-04-07T02:43:01;5.60;99.90
16578;DHT22;8401;52.528;13.340;2023-04-07T02:45:27;5.50;99.90
16578;DHT22;8401;52.528;13.340;2023-04-07T02:47:52;5.50;99.90
16578;DHT22;8401;52.528;13.340;2023-04-07T02:50:18;5.40;99.90
16578;DHT22;8401;52.528;13.340;2023-04-07T02:52:44;5.40;99.90
16578;DHT22;8401;52.528;13.340;2023-04-07T02:55:09;5.30;99.90
16578;DHT22;8401;52.528;13.340;2023-04-07T02:57:35;5.30;99.90
16578;DHT22;8401;52.528;13.340;2023-04-07T03:00:01;5.20;99.90
16578;DHT22;8401;52.528;13.340;2023-04-07T03:02:27;5.20;99.90
16578;DHT22;8401;52.528;13.340;2023-04-07T03:04:52;5.10;99.90
16578;DHT22;8401;52.528;13.340;2023-04-07T03:07:18;5.10;99.90
16578;DHT22;8401;52.528;13.340;2023-04-07T03:09:44;5.10;99.90
16578;DHT22;8401;52.528;13.340;2023-04-07T03:12:10;5.10;99.90
16578;DHT22;8401;52.528;13.340;2023-04-07T03:14:36;5.10;99.90
16578;DHT22;8401;52.528;13.340;2023-04-07T03:17:02;5.00;99.90
16578;DHT22;8401;52.528;13.340;2023-04-07T03:19:28;5.00;99.90
16578;DHT22;8401;52.528;13.340;2023-04-07T03:21:54;5.00;99.90
16578;DHT22;8401;52.528;13.340;2023-04-07T03:24:19;4.90;99.90
16578;DHT22;8401;52.528;13.340;2023-04-07T03:26:45;4.90;99.90
16578;DHT22;8401;52.528;13.340;2023-04-07T03:29:11;4.90;99.90
16578;DHT22;8401;52.528;13.340;2023-04-07T03:31:37;4.80;99.90
16578;DHT22;8401;52.528;13.340;2023-04-07T03:34:03;4.80;99.90
16578;DHT22;8401;52.528;13.340;2023-04-07T03:36:29;4.80;99.90
16578;DHT22;8401;52.528;13.340;2023-04-07T03:38:56;4.80;99.90
16578;DHT22;8401;52.528;13.340;2023-04-07T03:41:22;4.80;99.90
16578;DHT22;8401;52.528;13.340;2023-04-07T03:43:48;4.80;99.90
16578;DHT22;8401;52.528;13.340;2023-04-07T03:46:13;4.90;99.90
16578;DHT22;8401;52.528;13.340;2023-04-07T03:48:39;4.80;99.90
16578;DHT22;8401;52.528;13.340;2023-04-07T03:51:06;4.90;99.90
16578;DHT22;8401;52.528;13.340;2023-04-07T03:53:31;4.80;99.90
16578;DHT22;8401;52.528;13.340;2023-04-07T03:55:57;4.80;99.90
16578;DHT22;8401;52.528;13.340;2023-04-07T03:58:23;4.70;99.90
16578;DHT22;8401;52.528;13.340;2023-04-07T04:00:49;4.70;99.90
16578;DHT22;8401;52.528;13.340;2023-04-07T04:03:15;4.70;99.90
16578;DHT22;8401;52.528;13.340;2023-04-07T04:05:40;4.70;99.90
16578;DHT22;8401;52.528;13.340;2023-04-07T04:08:06;4.60;99.90
16578;DHT22;8401;52.528;13.340;2023-04-07T04:10:32;4.50;99.90
16578;DHT22;8401;52.528;13.340;2023-04-07T04:12:57;4.50;99.90
16578;DHT22;8401;52.528;13.340;2023-04-07T04:15:25;4.40;99.90
16578;DHT22;8401;52.528;13.340;2023-04-07T04:17:51;4.40;99.90
16578;DHT22;8401;52.528;13.340;2023-04-07T04:20:16;4.40;99.90
16578;DHT22;8401;52.528;13.340;2023-04-07T04:22:42;4.30;99.90
16578;DHT22;8401;52.528;13.340;2023-04-07T04:25:08;4.20;99.90
16578;DHT22;8401;52.528;13.340;2023-04-07T04:27:34;4.20;99.90
16578;DHT22;8401;52.528;13.340;2023-04-07T04:29:59;4.10;99.90
16578;DHT22;8401;52.528;13.340;2023-04-07T04:32:25;4.10;99.90
16578;DHT22;8401;52.528;13.340;2023-04-07T04:34:51;4.10;99.90
16578;DHT22;8401;52.528;13.340;2023-04-07T04:37:17;4.10;99.90
16578;DHT22;8401;52.528;13.340;2023-04-07T04:39:42;4.10;99.90
16578;DHT22;8401;52.528;13.340;2023-04-07T04:42:08;4.20;99.90
16578;DHT22;8401;52.528;13.340;2023-04-07T04:44:34;4.20;99.90
16578;DHT22;8401;52.528;13.340;2023-04-07T04:46:59;4.20;99.90
16578;DHT22;8401;52.528;13.340;2023-04-07T04:49:25;4.10;99.90
16578;DHT22;8401;52.528;13.340;2023-04-07T04:51:51;4.10;99.90
16578;DHT22;8401;52.528;13.340;2023-04-07T04:54:18;4.10;99.90
16578;DHT22;8401;52.528;13.340;2023-04-07T04:56:43;4.10;99.90
16578;DHT22;8401;52.528;13.340;2023-04-07T04:59:09;4.20;99.90
16578;DHT22;8401;52.528;13.340;2023-04-07T05:01:35;4.10;99.90
16578;DHT22;8401;52.528;13.340;2023-04-07T05:04:01;4.20;99.90
16578;DHT22;8401;52.528;13.340;2023-04-07T05:06:26;4.20;99.90
16578;DHT22;8401;52.528;13.340;2023-04-07T05:08:52;4.20;99.90
16578;DHT22;8401;52.528;13.340;2023-04-07T05:11:18;4.20;99.90
16578;DHT22;8401;52.528;13.340;2023-04-07T05:13:44;4.20;99.90
16578;DHT22;8401;52.528;13.340;2023-04-07T05:16:10;4.30;99.90
16578;DHT22;8401;52.528;13.340;2023-04-07T05:18:35;4.30;99.90
16578;DHT22;8401;52.528;13.340;2023-04-07T05:21:01;4.30;99.90
16578;DHT22;8401;52.528;13.340;2023-04-07T05:23:27;4.30;99.90
16578;DHT22;8401;52.528;13.340;2023-04-07T05:25:52;4.30;99.90
16578;DHT22;8401;52.528;13.340;2023-04-07T05:28:18;4.30;99.90
16578;DHT22;8401;52.528;13.340;2023-04-07T05:30:44;4.30;99.90
16578;DHT22;8401;52.528;13.340;2023-04-07T05:33:10;4.30;99.90
16578;DHT22;8401;52.528;13.340;2023-04-07T05:35:35;4.30;99.90
16578;DHT22;8401;52.528;13.340;2023-04-07T05:38:01;4.30;99.90
16578;DHT22;8401;52.528;13.340;2023-04-07T05:40:27;4.30;99.90
16578;DHT22;8401;52.528;13.340;2023-04-07T05:42:54;4.30;99.90
16578;DHT22;8401;52.528;13.340;2023-04-07T05:45:20;4.30;99.90
16578;DHT22;8401;52.528;13.340;2023-04-07T05:47:46;4.30;99.90
16578;DHT22;8401;52.528;13.340;2023-04-07T05:50:14;4.40;99.90
16578;DHT22;8401;52.528;13.340;2023-04-07T05:52:40;4.40;99.90
16578;DHT22;8401;52.528;13.340;2023-04-07T05:55:06;4.30;99.90
16578;DHT22;8401;52.528;13.340;2023-04-07T05:57:32;4.40;99.90
16578;DHT22;8401;52.528;13.340;2023-04-07T05:59:58;4.50;99.90
16578;DHT22;8401;52.528;13.340;2023-04-07T06:02:24;4.60;99.90
16578;DHT22;8401;52.528;13.340;2023-04-07T06:04:49;4.70;99.90
16578;DHT22;8401;52.528;13.340;2023-04-07T06:07:15;4.70;99.90
16578;DHT22;8401;52.528;13.340;2023-04-07T06:09:40;4.60;99.90
16578;DHT22;8401;52.528;13.340;2023-04-07T06:12:07;4.60;99.90
16578;DHT22;8401;52.528;13.340;2023-04-07T06:14:33;4.60;99.90
16578;DHT22;8401;52.528;13.340;2023-04-07T06:16:59;4.70;99.90
16578;DHT22;8401;52.528;13.340;2023-04-07T06:19:25;4.80;99.90
16578;DHT22;8401;52.528;13.340;2023-04-07T06:21:52;4.90;99.90
16578;DHT22;8401;52.528;13.340;2023-04-07T06:24:18;5.00;99.90
16578;DHT22;8401;52.528;13.340;2023-04-07T06:26:48;5.00;99.90
16578;DHT22;8401;52.528;13.340;2023-04-07T06:29:14;5.30;99.90
16578;DHT22;8401;52.528;13.340;2023-04-07T06:31:39;5.20;99.90
16578;DHT22;8401;52.528;13.340;2023-04-07T06:34:05;5.00;99.90
16578;DHT22;8401;52.528;13.340;2023-04-07T06:36:31;4.90;99.90
16578;DHT22;8401;52.528;13.340;2023-04-07T06:38:58;4.90;99.90
16578;DHT22;8401;52.528;13.340;2023-04-07T06:41:23;5.00;99.90
16578;DHT22;8401;52.528;13.340;2023-04-07T06:43:49;4.90;99.90
16578;DHT22;8401;52.528;13.340;2023-04-07T06:46:16;5.00;99.90
16578;DHT22;8401;52.528;13.340;2023-04-07T06:48:42;5.10;99.90
16578;DHT22;8401;52.528;13.340;2023-04-07T06:51:07;5.20;99.90
16578;DHT22;8401;52.528;13.340;2023-04-07T06:53:33;5.20;99.90
16578;DHT22;8401;52.528;13.340;2023-04-07T06:56:09;5.50;99.90
16578;DHT22;8401;52.528;13.340;2023-04-07T06:58:36;5.50;99.90
16578;DHT22;8401;52.528;13.340;2023-04-07T07:01:04;5.60;99.90
16578;DHT22;8401;52.528;13.340;2023-04-07T07:03:31;5.70;99.90
16578;DHT22;8401;52.528;13.340;2023-04-07T07:05:57;5.60;99.90
16578;DHT22;8401;52.528;13.340;2023-04-07T07:08:27;5.70;99.90
16578;DHT22;8401;52.528;13.340;2023-04-07T07:10:54;5.70;99.90
16578;DHT22;8401;52.528;13.340;2023-04-07T07:13:22;5.70;99.90
16578;DHT22;8401;52.528;13.340;2023-04-07T07:15:49;5.90;99.90
16578;DHT22;8401;52.528;13.340;2023-04-07T07:18:16;6.00;99.90
16578;DHT22;8401;52.528;13.340;2023-04-07T07:20:41;5.90;99.90
16578;DHT22;8401;52.528;13.340;2023-04-07T07:23:07;6.10;99.90
16578;DHT22;8401;52.528;13.340;2023-04-07T07:25:33;6.10;99.90
16578;DHT22;8401;52.528;13.340;2023-04-07T07:27:58;6.40;99.90
16578;DHT22;8401;52.528;13.340;2023-04-07T07:30:24;6.40;99.90
16578;DHT22;8401;52.528;13.340;2023-04-07T07:32:50;6.80;99.90
16578;DHT22;8401;52.528;13.340;2023-04-07T07:35:18;6.70;99.90
16578;DHT22;8401;52.528;13.340;2023-04-07T07:37:44;6.80;99.90
16578;DHT22;8401;52.528;13.340;2023-04-07T07:40:09;6.70;99.90
16578;DHT22;8401;52.528;13.340;2023-04-07T07:42:35;6.80;99.90
16578;DHT22;8401;52.528;13.340;2023-04-07T07:45:01;6.90;99.90
16578;DHT22;8401;52.528;13.340;2023-04-07T07:47:27;7.00;99.90
16578;DHT22;8401;52.528;13.340;2023-04-07T07:49:53;7.40;99.90
16578;DHT22;8401;52.528;13.340;2023-04-07T07:52:19;7.80;99.90
16578;DHT22;8401;52.528;13.340;2023-04-07T07:54:46;8.00;99.90
16578;DHT22;8401;52.528;13.340;2023-04-07T07:57:12;8.20;99.90
16578;DHT22;8401;52.528;13.340;2023-04-07T07:59:38;8.20;99.90
16578;DHT22;8401;52.528;13.340;2023-04-07T08:02:06;8.00;99.90
16578;DHT22;8401;52.528;13.340;2023-04-07T08:04:32;7.80;99.90
16578;DHT22;8401;52.528;13.340;2023-04-07T08:06:57;7.70;99.90
16578;DHT22;8401;52.528;13.340;2023-04-07T08:09:23;7.50;99.90
16578;DHT22;8401;52.528;13.340;2023-04-07T08:11:49;7.70;99.90
16578;DHT22;8401;52.528;13.340;2023-04-07T08:14:15;7.90;99.90
16578;DHT22;8401;52.528;13.340;2023-04-07T08:16:42;7.90;99.90
16578;DHT22;8401;52.528;13.340;2023-04-07T08:19:07;7.70;99.90
16578;DHT22;8401;52.528;13.340;2023-04-07T08:21:33;7.80;99.90
16578;DHT22;8401;52.528;13.340;2023-04-07T08:23:59;8.30;99.90
16578;DHT22;8401;52.528;13.340;2023-04-07T08:26:25;8.40;99.90
16578;DHT22;8401;52.528;13.340;2023-04-07T08:28:52;8.80;99.90
16578;DHT22;8401;52.528;13.340;2023-04-07T08:31:18;8.90;99.90
16578;DHT22;8401;52.528;13.340;2023-04-07T08:33:44;8.90;99.90
16578;DHT22;8401;52.528;13.340;2023-04-07T08:36:10;9.60;99.90
16578;DHT22;8401;52.528;13.340;2023-04-07T08:38:36;9.60;98.60
16578;DHT22;8401;52.528;13.340;2023-04-07T08:41:06;9.40;98.30
16578;DHT22;8401;52.528;13.340;2023-04-07T08:43:34;9.20;97.70
16578;DHT22;8401;52.528;13.340;2023-04-07T08:46:01;9.20;97.10
16578;DHT22;8401;52.528;13.340;2023-04-07T08:48:29;9.00;96.80
16578;DHT22;8401;52.528;13.340;2023-04-07T08:51:01;9.10;97.50
16578;DHT22;8401;52.528;13.340;2023-04-07T08:53:37;9.20;96.70
16578;DHT22;8401;52.528;13.340;2023-04-07T08:56:06;9.10;96.40
16578;DHT22;8401;52.528;13.340;2023-04-07T08:58:32;9.10;96.90
16578;DHT22;8401;52.528;13.340;2023-04-07T09:00:59;9.20;96.40
16578;DHT22;8401;52.528;13.340;2023-04-07T09:03:25;8.90;96.40
16578;DHT22;8401;52.528;13.340;2023-04-07T09:05:51;8.90;96.50
16578;DHT22;8401;52.528;13.340;2023-04-07T09:08:17;8.80;97.20
16578;DHT22;8401;52.528;13.340;2023-04-07T09:10:42;9.20;96.60
16578;DHT22;8401;52.528;13.340;2023-04-07T09:13:08;9.90;94.30
16578;DHT22;8401;52.528;13.340;2023-04-07T09:15:34;10.00;93.30
16578;DHT22;8401;52.528;13.340;2023-04-07T09:18:00;10.30;92.40
16578;DHT22;8401;52.528;13.340;2023-04-07T09:20:25;10.30;92.60
16578;DHT22;8401;52.528;13.340;2023-04-07T09:22:54;9.60;92.40
16578;DHT22;8401;52.528;13.340;2023-04-07T09:25:23;9.40;92.60
16578;DHT22;8401;52.528;13.340;2023-04-07T09:28:02;9.80;93.30
16578;DHT22;8401;52.528;13.340;2023-04-07T09:30:30;9.90;93.70
16578;DHT22;8401;52.528;13.340;2023-04-07T09:32:57;9.20;94.10
16578;DHT22;8401;52.528;13.340;2023-04-07T09:35:23;8.70;95.10
16578;DHT22;8401;52.528;13.340;2023-04-07T09:38:06;8.80;96.00
16578;DHT22;8401;52.528;13.340;2023-04-07T09:40:32;8.50;97.30
16578;DHT22;8401;52.528;13.340;2023-04-07T09:42:59;8.40;98.10
16578;DHT22;8401;52.528;13.340;2023-04-07T09:45:26;8.10;98.50
16578;DHT22;8401;52.528;13.340;2023-04-07T09:47:53;8.20;98.90
16578;DHT22;8401;52.528;13.340;2023-04-07T09:50:33;8.20;98.70
16578;DHT22;8401;52.528;13.340;2023-04-07T09:53:01;8.30;99.00
16578;DHT22;8401;52.528;13.340;2023-04-07T09:55:30;8.10;98.90
16578;DHT22;8401;52.528;13.340;2023-04-07T09:57:56;8.10;99.00
16578;DHT22;8401;52.528;13.340;2023-04-07T10:00:22;8.30;98.80
16578;DHT22;8401;52.528;13.340;2023-04-07T10:02:48;8.40;98.20
16578;DHT22;8401;52.528;13.340;2023-04-07T10:05:16;8.30;97.70
16578;DHT22;8401;52.528;13.340;2023-04-07T10:07:42;8.40;97.70
16578;DHT22;8401;52.528;13.340;2023-04-07T10:10:08;8.60;99.90
16578;DHT22;8401;52.528;13.340;2023-04-07T10:12:36;8.50;99.90
16578;DHT22;8401;52.528;13.340;2023-04-07T10:15:03;8.60;99.40
16578;DHT22;8401;52.528;13.340;2023-04-07T10:17:30;8.70;99.10
16578;DHT22;8401;52.528;13.340;2023-04-07T10:19:57;8.60;99.70
16578;DHT22;8401;52.528;13.340;2023-04-07T10:22:25;8.60;98.30
16578;DHT22;8401;52.528;13.340;2023-04-07T10:25:01;8.50;99.90
16578;DHT22;8401;52.528;13.340;2023-04-07T10:27:36;8.20;98.10
16578;DHT22;8401;52.528;13.340;2023-04-07T10:30:04;8.30;99.00
16578;DHT22;8401;52.528;13.340;2023-04-07T10:32:31;8.20;99.10
16578;DHT22;8401;52.528;13.340;2023-04-07T10:34:58;8.40;98.90
16578;DHT22;8401;52.528;13.340;2023-04-07T10:37:25;8.10;99.30
16578;DHT22;8401;52.528;13.340;2023-04-07T10:42:51;7.70;99.90
16578;DHT22;8401;52.528;13.340;2023-04-07T10:48:18;8.40;99.90
16578;DHT22;8401;52.528;13.340;2023-04-07T10:50:45;8.70;99.90
16578;DHT22;8401;52.528;13.340;2023-04-07T10:53:12;8.60;99.90
16578;DHT22;8401;52.528;13.340;2023-04-07T10:55:40;8.40;99.90
16578;DHT22;8401;52.528;13.340;2023-04-07T11:03:30;8.60;99.90
16578;DHT22;8401;52.528;13.340;2023-04-07T11:08:33;8.60;99.90
16578;DHT22;8401;52.528;13.340;2023-04-07T11:10:59;8.40;99.90
16578;DHT22;8401;52.528;13.340;2023-04-07T11:13:25;8.30;99.90
16578;DHT22;8401;52.528;13.340;2023-04-07T11:15:51;8.30;99.90
16578;DHT22;8401;52.528;13.340;2023-04-07T11:18:19;8.10;99.90
16578;DHT22;8401;52.528;13.340;2023-04-07T11:20:52;8.10;99.90
16578;DHT22;8401;52.528;13.340;2023-04-07T11:23:22;7.90;99.90
16578;DHT22;8401;52.528;13.340;2023-04-07T11:25:50;7.90;99.90
16578;DHT22;8401;52.528;13.340;2023-04-07T11:28:16;8.00;99.90
16578;DHT22;8401;52.528;13.340;2023-04-07T11:30:48;8.00;99.90
16578;DHT22;8401;52.528;13.340;2023-04-07T11:33:22;7.70;99.90
16578;DHT22;8401;52.528;13.340;2023-04-07T11:35:58;7.60;99.90
16578;DHT22;8401;52.528;13.340;2023-04-07T11:38:27;7.70;99.90
16578;DHT22;8401;52.528;13.340;2023-04-07T11:40:54;7.60;99.90
16578;DHT22;8401;52.528;13.340;2023-04-07T11:43:23;7.60;99.90
16578;DHT22;8401;52.528;13.340;2023-04-07T11:46:12;7.80;99.90
16578;DHT22;8401;52.528;13.340;2023-04-07T11:48:40;7.90;99.90
16578;DHT22;8401;52.528;13.340;2023-04-07T11:51:17;7.80;99.90
16578;DHT22;8401;52.528;13.340;2023-04-07T11:53:44;7.90;99.90
16578;DHT22;8401;52.528;13.340;2023-04-07T11:56:13;7.90;99.90
16578;DHT22;8401;52.528;13.340;2023-04-07T11:58:47;7.70;99.90
16578;DHT22;8401;52.528;13.340;2023-04-07T12:01:13;8.00;99.90
16578;DHT22;8401;52.528;13.340;2023-04-07T12:06:31;8.40;99.90
16578;DHT22;8401;52.528;13.340;2023-04-07T12:09:03;8.10;99.90
16578;DHT22;8401;52.528;13.340;2023-04-07T12:11:30;8.10;99.90
16578;DHT22;8401;52.528;13.340;2023-04-07T12:13:57;7.70;99.90
16578;DHT22;8401;52.528;13.340;2023-04-07T12:16:23;7.70;99.90
16578;DHT22;8401;52.528;13.340;2023-04-07T12:18:49;7.50;99.90
16578;DHT22;8401;52.528;13.340;2023-04-07T12:21:18;7.60;99.90
16578;DHT22;8401;52.528;13.340;2023-04-07T12:23:45;7.50;99.90
16578;DHT22;8401;52.528;13.340;2023-04-07T12:26:12;7.50;99.90
16578;DHT22;8401;52.528;13.340;2023-04-07T12:28:38;7.40;99.90
16578;DHT22;8401;52.528;13.340;2023-04-07T12:31:03;7.50;99.90
16578;DHT22;8401;52.528;13.340;2023-04-07T12:33:30;7.50;99.90
16578;DHT22;8401;52.528;13.340;2023-04-07T12:35:56;7.50;99.90
16578;DHT22;8401;52.528;13.340;2023-04-07T12:38:22;7.40;99.90
16578;DHT22;8401;52.528;13.340;2023-04-07T12:40:48;7.20;99.90
16578;DHT22;8401;52.528;13.340;2023-04-07T12:43:13;7.30;99.90
16578;DHT22;8401;52.528;13.340;2023-04-07T12:45:39;7.20;99.90
16578;DHT22;8401;52.528;13.340;2023-04-07T12:48:05;7.10;99.90
16578;DHT22;8401;52.528;13.340;2023-04-07T12:50:31;7.10;99.90
16578;DHT22;8401;52.528;13.340;2023-04-07T12:52:57;7.20;99.90
16578;DHT22;8401;52.528;13.340;2023-04-07T12:55:30;7.20;99.90
16578;DHT22;8401;52.528;13.340;2023-04-07T12:57:58;7.20;99.90
16578;DHT22;8401;52.528;13.340;2023-04-07T13:00:24;7.30;99.90
16578;DHT22;8401;52.528;13.340;2023-04-07T13:02:50;7.20;99.90
16578;DHT22;8401;52.528;13.340;2023-04-07T13:05:15;7.40;99.90
16578;DHT22;8401;52.528;13.340;2023-04-07T13:07:43;7.40;99.90
16578;DHT22;8401;52.528;13.340;2023-04-07T13:10:09;7.40;99.90
16578;DHT22;8401;52.528;13.340;2023-04-07T13:12:35;7.30;99.90
16578;DHT22;8401;52.528;13.340;2023-04-07T13:15:00;7.30;99.90
16578;DHT22;8401;52.528;13.340;2023-04-07T13:17:27;7.50;99.90
16578;DHT22;8401;52.528;13.340;2023-04-07T13:19:53;7.50;99.90
16578;DHT22;8401;52.528;13.340;2023-04-07T13:22:19;7.60;99.90
16578;DHT22;8401;52.528;13.340;2023-04-07T13:24:45;7.60;99.90
16578;DHT22;8401;52.528;13.340;2023-04-07T13:27:11;7.70;99.90
16578;DHT22;8401;52.528;13.340;2023-04-07T13:29:36;8.20;99.90
16578;DHT22;8401;52.528;13.340;2023-04-07T13:32:06;8.00;99.90
16578;DHT22;8401;52.528;13.340;2023-04-07T13:34:33;7.70;99.90
16578;DHT22;8401;52.528;13.340;2023-04-07T13:37:00;7.40;99.90
16578;DHT22;8401;52.528;13.340;2023-04-07T13:39:26;7.40;99.90
16578;DHT22;8401;52.528;13.340;2023-04-07T13:41:52;7.40;99.90
16578;DHT22;8401;52.528;13.340;2023-04-07T13:44:18;7.50;99.90
16578;DHT22;8401;52.528;13.340;2023-04-07T13:46:43;7.40;99.90
16578;DHT22;8401;52.528;13.340;2023-04-07T13:49:09;7.30;99.90
16578;DHT22;8401;52.528;13.340;2023-04-07T13:51:35;7.30;99.90
16578;DHT22;8401;52.528;13.340;2023-04-07T13:54:00;7.20;99.90
16578;DHT22;8401;52.528;13.340;2023-04-07T13:56:26;7.20;99.90
16578;DHT22;8401;52.528;13.340;2023-04-07T13:58:52;7.20;99.90
16578;DHT22;8401;52.528;13.340;2023-04-07T14:01:18;7.10;99.90
16578;DHT22;8401;52.528;13.340;2023-04-07T14:03:44;7.20;99.90
16578;DHT22;8401;52.528;13.340;2023-04-07T14:06:10;7.10;99.90
16578;DHT22;8401;52.528;13.340;2023-04-07T14:08:36;7.20;99.90
16578;DHT22;8401;52.528;13.340;2023-04-07T14:11:01;7.30;99.90
16578;DHT22;8401;52.528;13.340;2023-04-07T14:13:27;7.30;99.90
16578;DHT22;8401;52.528;13.340;2023-04-07T14:15:53;7.30;99.90
16578;DHT22;8401;52.528;13.340;2023-04-07T14:18:18;7.20;99.90
16578;DHT22;8401;52.528;13.340;2023-04-07T14:20:45;7.10;99.90
16578;DHT22;8401;52.528;13.340;2023-04-07T14:23:11;7.10;99.90
16578;DHT22;8401;52.528;13.340;2023-04-07T14:25:36;7.00;99.90
16578;DHT22;8401;52.528;13.340;2023-04-07T14:28:02;7.10;99.90
16578;DHT22;8401;52.528;13.340;2023-04-07T14:30:28;7.40;99.90
16578;DHT22;8401;52.528;13.340;2023-04-07T14:32:55;7.50;99.90
16578;DHT22;8401;52.528;13.340;2023-04-07T14:35:21;7.10;99.90
16578;DHT22;8401;52.528;13.340;2023-04-07T14:37:46;6.90;99.90
16578;DHT22;8401;52.528;13.340;2023-04-07T14:40:12;6.90;99.90
16578;DHT22;8401;52.528;13.340;2023-04-07T14:42:38;6.90;99.90
16578;DHT22;8401;52.528;13.340;2023-04-07T14:45:04;7.00;99.90
16578;DHT22;8401;52.528;13.340;2023-04-07T14:47:30;6.90;99.90
16578;DHT22;8401;52.528;13.340;2023-04-07T14:49:56;6.90;99.90
16578;DHT22;8401;52.528;13.340;2023-04-07T14:52:21;7.00;99.90
16578;DHT22;8401;52.528;13.340;2023-04-07T14:54:47;6.90;99.90
16578;DHT22;8401;52.528;13.340;2023-04-07T14:57:13;6.90;99.90
16578;DHT22;8401;52.528;13.340;2023-04-07T14:59:38;6.90;99.90
16578;DHT22;8401;52.528;13.340;2023-04-07T15:02:04;7.10;99.90
16578;DHT22;8401;52.528;13.340;2023-04-07T15:04:30;7.10;99.90
16578;DHT22;8401;52.528;13.340;2023-04-07T15:06:56;6.90;99.90
16578;DHT22;8401;52.528;13.340;2023-04-07T15:09:21;6.80;99.90
16578;DHT22;8401;52.528;13.340;2023-04-07T15:11:47;6.80;99.90
16578;DHT22;8401;52.528;13.340;2023-04-07T15:14:13;6.80;99.90
16578;DHT22;8401;52.528;13.340;2023-04-07T15:16:39;7.00;99.90
16578;DHT22;8401;52.528;13.340;2023-04-07T15:19:05;7.00;99.90
16578;DHT22;8401;52.528;13.340;2023-04-07T15:21:30;6.90;99.90
16578;DHT22;8401;52.528;13.340;2023-04-07T15:23:56;6.90;99.90
16578;DHT22;8401;52.528;13.340;2023-04-07T15:26:22;6.80;99.90
16578;DHT22;8401;52.528;13.340;2023-04-07T15:28:48;6.80;99.90
16578;DHT22;8401;52.528;13.340;2023-04-07T15:31:13;7.00;99.90
16578;DHT22;8401;52.528;13.340;2023-04-07T15:33:39;7.10;99.90
16578;DHT22;8401;52.528;13.340;2023-04-07T15:36:08;7.10;99.90
16578;DHT22;8401;52.528;13.340;2023-04-07T15:38:34;7.00;99.90
16578;DHT22;8401;52.528;13.340;2023-04-07T15:41:00;7.00;99.90
16578;DHT22;8401;52.528;13.340;2023-04-07T15:43:26;7.00;99.90
16578;DHT22;8401;52.528;13.340;2023-04-07T15:45:53;6.80;99.90
16578;DHT22;8401;52.528;13.340;2023-04-07T15:48:20;6.70;99.90
16578;DHT22;8401;52.528;13.340;2023-04-07T15:50:45;6.70;99.90
16578;DHT22;8401;52.528;13.340;2023-04-07T15:53:11;6.60;99.90
16578;DHT22;8401;52.528;13.340;2023-04-07T15:55:37;6.60;99.90
16578;DHT22;8401;52.528;13.340;2023-04-07T15:58:03;6.50;99.90
16578;DHT22;8401;52.528;13.340;2023-04-07T16:00:32;6.50;99.90
16578;DHT22;8401;52.528;13.340;2023-04-07T16:02:59;6.50;99.90
16578;DHT22;8401;52.528;13.340;2023-04-07T16:05:25;6.60;99.90
16578;DHT22;8401;52.528;13.340;2023-04-07T16:07:50;6.50;99.90